首页
METAR-TAF:

METAR-TAF

机场 :

Friday Harbor Airport

Friday Harbor, 华盛顿, 美国

纬度: 48-31-13N, 经度: 123-01-31W, 海拔: 33米

当前天气观测

该预报发布于32分钟前的12:53 UTC
静风
温度 13°C
湿度 77%
气压 1015 hPa
能見度: 16.1公里
多云层高于10000英尺

METAR: KFHR 221253Z AUTO 00000KT 10SM BKN100 13/09 A2997 RMK AO2 SLP148 T01280094

时间: 06:25 (13:25 UTC)


TAF: 丢失

超过4000个机场的气象观测和天气预报(METAR&TAF报告)。

可查询的气象台以黄色和红色小点在地图上表示。

将鼠标移到小点上方,可查看气象台名称。

然后点击查看天气观测和预报。

如需切换地图:点击带黑十字的绿色按钮放大地图;点击带横线的绿色按钮缩小地图;或者点击绿色箭头查看邻近地区的地图。


METAR-TAF: